createdAt,value
2019-06-10T00:01:34.469Z,41.50
2019-06-10T00:04:06.342Z,40.90
2019-06-10T00:06:34.085Z,41.00
2019-06-10T00:09:06.069Z,41.30
2019-06-10T00:11:33.431Z,41.80
2019-06-10T00:14:03.954Z,41.50
2019-06-10T00:16:32.858Z,42.10
2019-06-10T00:19:06.061Z,42.50
2019-06-10T00:21:32.432Z,41.90
2019-06-10T00:24:02.568Z,42.00
2019-06-10T00:26:31.956Z,42.00
2019-06-10T00:29:03.143Z,42.40
2019-06-10T00:31:50.995Z,42.90
2019-06-10T00:34:20.914Z,42.70
2019-06-10T00:36:50.841Z,42.30
2019-06-10T00:39:22.240Z,43.10
2019-06-10T00:41:52.125Z,42.90
2019-06-10T00:44:21.263Z,42.60
2019-06-10T00:46:51.610Z,42.70
2019-06-10T00:49:21.402Z,42.70
2019-06-10T00:51:51.042Z,43.40
2019-06-10T00:54:21.969Z,44.20
2019-06-10T00:56:51.745Z,43.10
2019-06-10T00:59:22.067Z,43.40
2019-06-10T01:01:51.284Z,43.60
2019-06-10T01:04:21.667Z,44.20
2019-06-10T01:06:51.547Z,43.80
2019-06-10T01:09:21.890Z,44.30
2019-06-10T01:11:51.917Z,45.00
2019-06-10T01:14:21.652Z,44.70
2019-06-10T01:16:50.764Z,44.60
2019-06-10T01:19:21.899Z,44.50
2019-06-10T01:21:51.205Z,45.50
2019-06-10T01:24:22.349Z,44.80
2019-06-10T01:26:50.721Z,45.30
2019-06-10T01:29:21.074Z,44.70
2019-06-10T01:31:51.272Z,45.30
2019-06-10T01:34:21.766Z,45.10
2019-06-10T01:36:51.062Z,45.00
2019-06-10T01:39:22.403Z,45.20
2019-06-10T01:41:51.229Z,45.80
2019-06-10T01:44:22.095Z,45.20
2019-06-10T01:46:51.616Z,46.80
2019-06-10T01:49:21.296Z,45.60
2019-06-10T01:51:51.581Z,46.70
2019-06-10T01:54:21.320Z,46.20
2019-06-10T01:56:51.076Z,45.80
2019-06-10T01:59:22.102Z,46.40
2019-06-10T02:02:01.447Z,46.20
2019-06-10T02:04:32.042Z,45.90
2019-06-10T02:07:01.465Z,46.20
2019-06-10T02:09:31.072Z,46.50
2019-06-10T02:12:02.225Z,46.70
2019-06-10T02:14:31.806Z,46.70
2019-06-10T02:17:01.327Z,46.80
2019-06-10T02:19:31.175Z,47.30
2019-06-10T02:22:01.216Z,47.40
2019-06-10T02:24:31.601Z,46.90
2019-06-10T02:27:01.084Z,47.70
2019-06-10T02:29:30.798Z,47.60
2019-06-10T02:32:04.237Z,47.30
2019-06-10T02:34:36.659Z,47.20
2019-06-10T02:37:04.367Z,47.20
2019-06-10T02:39:35.122Z,47.20
2019-06-10T02:42:04.516Z,47.40
2019-06-10T02:44:37.485Z,47.60
2019-06-10T02:47:04.289Z,48.00
2019-06-10T02:49:50.688Z,48.50
2019-06-10T02:52:05.401Z,47.80
2019-06-10T02:54:35.958Z,47.80
2019-06-10T02:57:05.085Z,48.00
2019-06-10T02:59:36.426Z,48.10
2019-06-10T03:02:04.772Z,48.40
2019-06-10T03:04:37.675Z,48.90
2019-06-10T03:07:05.229Z,49.20
2019-06-10T03:09:35.753Z,48.70
2019-06-10T03:12:04.947Z,48.80
2019-06-10T03:14:34.126Z,49.30
2019-06-10T03:17:04.534Z,48.90
2019-06-10T03:19:44.176Z,49.40
2019-06-10T03:22:03.839Z,48.90
2019-06-10T03:24:32.893Z,48.80
2019-06-10T03:27:02.664Z,48.90
2019-06-10T03:29:32.765Z,49.00
2019-06-10T03:32:05.170Z,49.00
2019-06-10T03:34:40.557Z,49.80
2019-06-10T03:37:03.246Z,49.30
2019-06-10T03:39:32.343Z,49.10
2019-06-10T03:42:02.246Z,50.10
2019-06-10T03:44:33.020Z,49.30
2019-06-10T03:47:02.856Z,49.30
2019-06-10T03:49:32.220Z,49.60
2019-06-10T03:52:02.478Z,50.40
2019-06-10T03:54:32.570Z,50.10
2019-06-10T03:57:02.859Z,50.10
2019-06-10T03:59:32.428Z,50.40
2019-06-10T04:02:02.299Z,50.40
2019-06-10T04:04:32.776Z,50.50
2019-06-10T04:07:03.827Z,50.50
2019-06-10T04:09:33.065Z,50.10
2019-06-10T04:12:02.171Z,49.90
2019-06-10T04:14:32.722Z,49.90
2019-06-10T04:17:02.722Z,49.90
2019-06-10T04:19:32.790Z,50.90
2019-06-10T04:22:02.592Z,50.00
2019-06-10T04:24:32.718Z,50.00
2019-06-10T04:27:02.837Z,50.60
2019-06-10T04:29:32.903Z,50.50
2019-06-10T04:32:03.101Z,50.00
2019-06-10T04:34:33.306Z,50.20
2019-06-10T04:37:03.132Z,50.90
2019-06-10T04:39:33.711Z,50.70
2019-06-10T04:42:02.967Z,50.60
2019-06-10T04:44:32.949Z,50.20
2019-06-10T04:47:02.730Z,51.20
2019-06-10T04:49:32.700Z,50.00
2019-06-10T04:52:03.120Z,50.00
2019-06-10T04:54:33.257Z,50.70
2019-06-10T04:57:02.478Z,50.70
2019-06-10T04:59:33.607Z,50.10
2019-06-10T05:02:02.801Z,50.50
2019-06-10T05:04:32.973Z,49.80
2019-06-10T05:07:02.242Z,50.00
2019-06-10T05:09:33.350Z,50.50
2019-06-10T05:12:02.893Z,50.20
2019-06-10T05:14:33.491Z,50.00
2019-06-10T05:17:02.589Z,50.10
2019-06-10T05:19:33.779Z,50.10
2019-06-10T05:22:03.084Z,50.70
2019-06-10T05:24:34.443Z,50.10
2019-06-10T05:27:02.841Z,50.00
2019-06-10T05:29:33.914Z,50.00
2019-06-10T05:32:02.639Z,50.10
2019-06-10T05:34:34.522Z,50.00
2019-06-10T05:37:02.705Z,50.40
2019-06-10T05:39:34.728Z,49.90
2019-06-10T05:42:03.303Z,50.40
2019-06-10T05:44:34.449Z,50.00
2019-06-10T05:47:03.585Z,49.80
2019-06-10T05:49:34.287Z,49.90
2019-06-10T05:52:03.451Z,50.40
2019-06-10T05:54:34.937Z,50.40
2019-06-10T05:57:03.043Z,49.90
2019-06-10T05:59:34.090Z,49.70
2019-06-10T06:02:03.991Z,49.80
2019-06-10T06:04:35.584Z,49.90
2019-06-10T06:07:03.601Z,49.90
2019-06-10T06:09:35.136Z,49.90
2019-06-10T06:12:03.003Z,49.90
2019-06-10T06:14:34.265Z,49.80
2019-06-10T06:17:02.648Z,50.40
2019-06-10T06:19:33.684Z,49.80
2019-06-10T06:22:02.345Z,50.20
2019-06-10T06:24:33.948Z,49.70
2019-06-10T06:27:02.568Z,49.70
2019-06-10T06:29:33.865Z,49.70
2019-06-10T06:32:02.681Z,49.70
2019-06-10T06:34:33.707Z,50.20
2019-06-10T06:37:02.477Z,50.10
2019-06-10T06:39:33.420Z,50.60
2019-06-10T06:42:02.352Z,49.80
2019-06-10T06:44:33.057Z,49.90
2019-06-10T06:47:02.725Z,49.80
2019-06-10T06:49:32.834Z,49.90
2019-06-10T06:52:02.908Z,50.40
2019-06-10T06:54:33.430Z,49.90
2019-06-10T06:57:03.509Z,50.40
2019-06-10T06:59:34.242Z,49.80
2019-06-10T07:02:03.130Z,49.70
2019-06-10T07:04:33.935Z,50.20
2019-06-10T07:07:02.770Z,49.70
2019-06-10T07:09:34.366Z,50.20
2019-06-10T07:12:04.526Z,50.20
2019-06-10T07:14:35.928Z,50.20
2019-06-10T07:17:04.305Z,49.70
2019-06-10T07:19:35.036Z,49.90
2019-06-10T07:22:12.259Z,50.00
2019-06-10T07:24:37.213Z,51.40
2019-06-10T07:27:04.966Z,50.00
2019-06-10T07:29:35.873Z,49.80
2019-06-10T07:32:04.548Z,50.00
2019-06-10T07:34:35.513Z,50.00
2019-06-10T07:37:03.849Z,50.70
2019-06-10T07:39:34.974Z,50.30
2019-06-10T07:42:03.877Z,50.50
2019-06-10T07:44:33.426Z,50.90
2019-06-10T07:47:03.745Z,51.60
2019-06-10T07:49:33.873Z,51.60
2019-06-10T07:52:12.964Z,51.40
2019-06-10T07:54:34.780Z,50.90
2019-06-10T07:57:04.469Z,51.50
2019-06-10T07:59:33.853Z,51.40
2019-06-10T08:02:03.130Z,51.40
2019-06-10T08:04:33.586Z,50.90
2019-06-10T08:07:03.333Z,51.00
2019-06-10T08:09:34.223Z,51.10
2019-06-10T08:12:05.831Z,50.30
2019-06-10T08:14:33.820Z,50.90
2019-06-10T08:17:03.213Z,50.70
2019-06-10T08:19:37.625Z,50.60
2019-06-10T08:22:03.079Z,50.00
2019-06-10T08:24:32.937Z,50.60
2019-06-10T08:27:02.662Z,50.70
2019-06-10T08:29:33.018Z,50.80
2019-06-10T08:32:03.325Z,51.10
2019-06-10T08:34:32.967Z,49.70
2019-06-10T08:37:04.238Z,49.60
2019-06-10T08:39:33.452Z,49.90
2019-06-10T08:42:03.130Z,49.90
2019-06-10T08:44:32.725Z,49.60
2019-06-10T08:47:03.072Z,49.50
2019-06-10T08:49:32.696Z,49.30
2019-06-10T08:52:02.705Z,48.50
2019-06-10T08:54:32.416Z,49.00
2019-06-10T08:57:04.329Z,49.00
2019-06-10T08:59:32.707Z,49.00
2019-06-10T09:02:02.955Z,48.90
2019-06-10T09:04:33.084Z,48.70
2019-06-10T09:07:04.159Z,48.60
2019-06-10T09:09:33.560Z,47.90
2019-06-10T09:12:03.586Z,47.30
2019-06-10T09:14:33.725Z,47.40
2019-06-10T09:17:03.439Z,47.80
2019-06-10T09:19:33.265Z,47.90
2019-06-10T09:22:03.462Z,48.10
2019-06-10T09:24:33.164Z,48.30
2019-06-10T09:27:02.926Z,48.20
2019-06-10T09:29:32.894Z,49.00
2019-06-10T09:32:02.245Z,48.10
2019-06-10T09:34:33.029Z,47.30
2019-06-10T09:37:03.958Z,47.30
2019-06-10T09:39:32.838Z,47.00
2019-06-10T09:42:06.100Z,46.60
2019-06-10T09:44:33.393Z,46.30
2019-06-10T09:47:03.488Z,45.90
2019-06-10T09:49:33.043Z,45.00
2019-06-10T09:52:03.455Z,44.40
2019-06-10T09:54:33.486Z,42.80
2019-06-10T09:57:03.385Z,42.40
2019-06-10T09:59:32.393Z,42.50
2019-06-10T10:02:03.675Z,42.40
2019-06-10T10:04:32.704Z,41.90
2019-06-10T10:07:03.083Z,41.10
2019-06-10T10:09:36.757Z,40.90
2019-06-10T10:12:03.067Z,40.80
2019-06-10T10:14:33.542Z,40.80
2019-06-10T10:17:04.800Z,40.40
2019-06-10T10:19:33.268Z,39.80
2019-06-10T10:22:03.018Z,40.20
2019-06-10T10:24:34.039Z,40.00
2019-06-10T10:27:08.323Z,40.00
2019-06-10T10:29:33.617Z,40.00
2019-06-10T10:32:02.698Z,39.50
2019-06-10T10:34:33.272Z,39.10
2019-06-10T10:37:02.888Z,38.50
2019-06-10T10:39:32.726Z,38.30
2019-06-10T10:42:03.344Z,38.10
2019-06-10T10:44:32.386Z,38.80
2019-06-10T10:47:03.681Z,39.20
2019-06-10T10:49:32.567Z,39.10
2019-06-10T10:52:02.651Z,39.30
2019-06-10T10:54:35.976Z,39.80
2019-06-10T10:57:02.713Z,40.70
2019-06-10T10:59:33.237Z,40.50
2019-06-10T11:02:02.529Z,40.60
2019-06-10T11:04:32.906Z,40.40
2019-06-10T11:07:02.210Z,40.10
2019-06-10T11:09:33.107Z,40.20
2019-06-10T11:12:02.868Z,39.00
2019-06-10T11:14:34.011Z,39.30
2019-06-10T11:17:03.293Z,39.10
2019-06-10T11:19:32.972Z,39.40
2019-06-10T11:22:02.919Z,39.30
2019-06-10T11:24:37.669Z,39.60
2019-06-10T11:27:03.208Z,39.50
2019-06-10T11:29:32.877Z,39.40
2019-06-10T11:32:03.058Z,39.30
2019-06-10T11:34:33.215Z,39.70
2019-06-10T11:37:02.477Z,39.70
2019-06-10T11:39:33.294Z,39.90
2019-06-10T11:42:02.899Z,40.40
2019-06-10T11:44:33.884Z,40.70
2019-06-10T11:47:03.306Z,40.20
2019-06-10T11:49:32.726Z,39.50
2019-06-10T11:52:03.263Z,39.30
2019-06-10T11:54:37.142Z,39.10
2019-06-10T11:57:02.886Z,39.00
2019-06-10T11:59:32.754Z,39.00
2019-06-10T12:02:05.574Z,39.60
2019-06-10T12:04:32.430Z,39.10
2019-06-10T12:07:02.351Z,39.10
2019-06-10T12:09:33.422Z,38.40
2019-06-10T12:12:12.949Z,38.60
2019-06-10T12:14:43.136Z,37.70
2019-06-10T12:17:24.471Z,39.10
2019-06-10T12:19:43.336Z,39.40
2019-06-10T12:22:13.395Z,38.20
2019-06-10T12:24:43.256Z,37.50
2019-06-10T12:27:13.064Z,37.40
2019-06-10T12:29:42.370Z,37.10
2019-06-10T12:32:13.355Z,36.40
2019-06-10T12:34:45.277Z,36.40
2019-06-10T12:37:15.822Z,36.30
2019-06-10T12:39:42.936Z,36.60
2019-06-10T12:42:14.230Z,36.50
2019-06-10T12:44:42.865Z,36.80
2019-06-10T12:47:11.890Z,36.90
2019-06-10T12:49:42.720Z,36.80
2019-06-10T12:52:12.609Z,36.70
2019-06-10T12:54:42.299Z,36.40
2019-06-10T12:57:12.345Z,36.40
2019-06-10T12:59:43.030Z,36.50
2019-06-10T13:02:21.953Z,36.80
2019-06-10T13:04:42.986Z,36.90
2019-06-10T13:07:12.665Z,36.50
2019-06-10T13:09:43.866Z,36.40
2019-06-10T13:12:13.017Z,36.40
2019-06-10T13:14:43.551Z,36.90
2019-06-10T13:17:13.058Z,36.60
2019-06-10T13:19:43.265Z,36.60
2019-06-10T13:22:12.671Z,36.40
2019-06-10T13:24:42.391Z,36.40
2019-06-10T13:27:11.451Z,36.50
2019-06-10T13:29:42.828Z,36.40
2019-06-10T13:32:10.908Z,36.90
2019-06-10T13:34:42.190Z,37.40
2019-06-10T13:37:14.928Z,37.80
2019-06-10T13:39:42.923Z,37.30
2019-06-10T13:42:13.614Z,37.30
2019-06-10T13:44:42.772Z,37.40
2019-06-10T13:47:14.709Z,37.20
2019-06-10T13:49:42.921Z,37.10
2019-06-10T13:52:16.398Z,37.20
2019-06-10T13:54:46.103Z,37.20
2019-06-10T13:57:15.402Z,36.90
2019-06-10T13:59:46.408Z,37.90
2019-06-10T14:02:14.692Z,38.30
2019-06-10T14:04:43.634Z,39.00
2019-06-10T14:07:17.172Z,38.90
2019-06-10T14:09:43.490Z,39.00
2019-06-10T14:12:16.630Z,39.40
2019-06-10T14:14:42.976Z,39.70
2019-06-10T14:17:13.413Z,40.10
2019-06-10T14:19:43.281Z,39.10
2019-06-10T14:22:16.119Z,39.30
2019-06-10T14:24:43.056Z,39.30
2019-06-10T14:27:17.399Z,39.30
2019-06-10T14:29:42.485Z,39.50
2019-06-10T14:32:13.900Z,39.40
2019-06-10T14:34:42.114Z,39.20
2019-06-10T14:37:12.812Z,39.70
2019-06-10T14:39:42.244Z,39.40
2019-06-10T14:42:14.599Z,39.00
2019-06-10T14:44:42.205Z,39.00
2019-06-10T14:47:13.613Z,38.70
2019-06-10T14:49:42.494Z,38.50
2019-06-10T14:52:13.889Z,38.90
2019-06-10T14:54:42.832Z,38.60
2019-06-10T14:57:13.821Z,38.40
2019-06-10T14:59:42.658Z,38.30
2019-06-10T15:02:12.849Z,38.70
2019-06-10T15:04:42.593Z,38.80
2019-06-10T15:07:11.585Z,39.00
2019-06-10T15:09:43.036Z,39.10
2019-06-10T15:12:11.672Z,39.30
2019-06-10T15:14:42.734Z,39.70
2019-06-10T15:17:12.478Z,40.00
2019-06-10T15:19:42.531Z,40.10
2019-06-10T15:22:12.648Z,40.40
2019-06-10T15:24:42.749Z,40.90
2019-06-10T15:27:21.410Z,41.10
2019-06-10T15:29:43.149Z,42.30
2019-06-10T15:32:26.303Z,41.90
2019-06-10T15:34:43.047Z,42.00
2019-06-10T15:37:16.738Z,42.20
2019-06-10T15:39:42.750Z,42.40
2019-06-10T15:42:11.651Z,42.10
2019-06-10T15:44:52.019Z,42.80
2019-06-10T15:47:13.928Z,43.10
2019-06-10T15:49:41.409Z,43.20
2019-06-10T15:52:13.264Z,43.30
2019-06-10T15:54:42.651Z,43.90
2019-06-10T15:57:29.609Z,44.00
2019-06-10T15:59:42.779Z,44.30
2019-06-10T16:02:14.279Z,44.90
2019-06-10T16:04:43.215Z,44.90
2019-06-10T16:07:14.650Z,45.10
2019-06-10T16:09:42.846Z,45.10
2019-06-10T16:12:14.355Z,45.30
2019-06-10T16:14:42.539Z,45.70
2019-06-10T16:17:12.931Z,45.60
2019-06-10T16:19:43.157Z,45.90
2019-06-10T16:22:12.806Z,46.10
2019-06-10T16:24:42.759Z,46.30
2019-06-10T16:27:12.625Z,45.80
2019-06-10T16:29:42.398Z,45.40
2019-06-10T16:32:13.080Z,45.20
2019-06-10T16:34:42.237Z,45.30
2019-06-10T16:37:12.875Z,45.60
2019-06-10T16:39:43.117Z,46.90
2019-06-10T16:42:32.209Z,47.50
2019-06-10T16:45:02.502Z,47.80
2019-06-10T16:47:32.673Z,47.60
2019-06-10T16:50:03.274Z,47.90
2019-06-10T16:52:34.235Z,49.20
2019-06-10T16:55:04.204Z,49.70
2019-06-10T16:57:33.516Z,49.80
2019-06-10T17:00:10.724Z,49.70
2019-06-10T17:02:33.174Z,50.30
2019-06-10T17:05:03.165Z,50.50
2019-06-10T17:07:32.902Z,50.60
2019-06-10T17:10:02.452Z,50.70
2019-06-10T17:12:33.085Z,50.30
2019-06-10T17:15:03.454Z,50.50
2019-06-10T17:17:32.837Z,49.40
2019-06-10T17:20:03.804Z,50.00
2019-06-10T17:22:33.404Z,49.80
2019-06-10T17:25:02.386Z,49.90
2019-06-10T17:27:32.697Z,49.90
2019-06-10T17:30:02.915Z,50.10
2019-06-10T17:32:32.950Z,49.90
2019-06-10T17:35:02.429Z,50.00
2019-06-10T17:37:33.764Z,49.80
2019-06-10T17:40:02.644Z,49.80
2019-06-10T17:42:37.922Z,49.70
2019-06-10T17:45:02.590Z,49.70
2019-06-10T17:47:34.501Z,50.10
2019-06-10T17:50:02.481Z,50.10
2019-06-10T17:52:33.188Z,50.70
2019-06-10T17:55:03.333Z,50.80
2019-06-10T17:57:36.088Z,51.10
2019-06-10T18:00:11.004Z,51.40
2019-06-10T18:02:37.092Z,51.60
2019-06-10T18:05:06.703Z,51.10
2019-06-10T18:07:35.867Z,49.90
2019-06-10T18:10:05.877Z,49.00
2019-06-10T18:12:35.846Z,48.30
2019-06-10T18:15:05.789Z,48.60
2019-06-10T18:17:36.037Z,48.50
2019-06-10T18:20:09.168Z,48.10
2019-06-10T18:22:38.407Z,48.10
2019-06-10T18:25:08.263Z,48.20
2019-06-10T18:27:37.226Z,48.20
2019-06-10T18:30:11.435Z,48.20
2019-06-10T18:32:37.563Z,48.30
2019-06-10T18:35:08.163Z,48.80
2019-06-10T18:37:37.909Z,48.50
2019-06-10T18:40:09.824Z,48.60
2019-06-10T18:42:39.092Z,48.60
2019-06-10T18:45:12.970Z,47.90
2019-06-10T18:47:42.303Z,48.00
2019-06-10T18:50:13.002Z,47.30
2019-06-10T18:53:03.912Z,47.30
2019-06-10T18:55:35.932Z,47.40
2019-06-10T18:58:02.866Z,48.00
2019-06-10T19:00:54.512Z,48.10
2019-06-10T19:03:12.515Z,48.20
2019-06-10T19:05:38.175Z,48.10
2019-06-10T19:08:08.579Z,47.80
2019-06-10T19:10:38.996Z,47.70
2019-06-10T19:13:08.367Z,48.30
2019-06-10T19:15:40.484Z,48.30
2019-06-10T19:18:13.135Z,48.30
2019-06-10T19:20:42.798Z,47.80
2019-06-10T19:23:16.360Z,48.60
2019-06-10T19:25:44.805Z,48.80
2019-06-10T19:28:13.930Z,48.30
2019-06-10T19:30:44.855Z,49.30
2019-06-10T19:33:13.779Z,49.40
2019-06-10T19:35:44.262Z,49.50
2019-06-10T19:38:13.474Z,49.60
2019-06-10T19:40:44.053Z,49.90
2019-06-10T19:43:13.475Z,50.00
2019-06-10T19:45:43.445Z,50.80
2019-06-10T19:48:12.601Z,52.20
2019-06-10T19:50:48.139Z,52.60
2019-06-10T19:53:13.063Z,53.70
2019-06-10T19:55:44.392Z,55.40
2019-06-10T19:58:13.445Z,56.00
2019-06-10T20:00:50.834Z,57.00
2019-06-10T20:03:14.860Z,57.70
2019-06-10T20:05:46.745Z,58.00
2019-06-10T20:08:14.891Z,57.80
2019-06-10T20:10:45.374Z,59.30
2019-06-10T20:13:14.466Z,58.90
2019-06-10T20:15:45.018Z,59.50
2019-06-10T20:18:15.839Z,60.60
2019-06-10T20:20:47.024Z,60.80
2019-06-10T20:23:15.602Z,61.90
2019-06-10T20:25:46.813Z,62.10
2019-06-10T20:28:15.528Z,62.00
2019-06-10T20:30:47.769Z,62.10
2019-06-10T20:33:16.965Z,62.60
2019-06-10T20:35:46.320Z,62.50
2019-06-10T20:38:16.983Z,63.50
2019-06-10T20:40:47.534Z,63.70
2019-06-10T20:43:17.050Z,63.30
2019-06-10T20:45:47.899Z,64.10
2019-06-10T20:48:16.907Z,63.50
2019-06-10T20:50:47.391Z,64.70
2019-06-10T20:53:18.639Z,64.30
2019-06-10T20:55:52.697Z,64.90
2019-06-10T20:58:18.287Z,63.60
2019-06-10T21:00:52.286Z,63.70
2019-06-10T21:03:18.240Z,63.80
2019-06-10T21:05:50.115Z,64.20
2019-06-10T21:08:19.608Z,64.20
2019-06-10T21:10:50.133Z,65.50
2019-06-10T21:13:19.087Z,66.10
2019-06-10T21:15:50.450Z,65.30
2019-06-10T21:18:19.055Z,66.70
2019-06-10T21:20:50.074Z,66.20
2019-06-10T21:23:18.853Z,66.30
2019-06-10T21:25:50.678Z,66.80
2019-06-10T21:28:18.687Z,68.30
2019-06-10T21:30:53.727Z,68.30
2019-06-10T21:33:18.347Z,67.30
2019-06-10T21:35:50.123Z,67.80
2019-06-10T21:38:19.397Z,68.20
2019-06-10T21:40:48.361Z,68.50
2019-06-10T21:43:17.571Z,68.30
2019-06-10T21:45:51.249Z,68.10
2019-06-10T21:48:17.118Z,67.70
2019-06-10T21:50:48.131Z,68.10
2019-06-10T21:53:16.805Z,67.50
2019-06-10T21:55:46.638Z,67.50
2019-06-10T21:58:15.726Z,68.10
2019-06-10T22:01:03.402Z,67.60
2019-06-10T22:03:19.394Z,68.10
2019-06-10T22:05:49.460Z,67.80
2019-06-10T22:08:18.626Z,67.90
2019-06-10T22:10:48.041Z,68.70
2019-06-10T22:13:29.806Z,67.70
2019-06-10T22:16:06.266Z,68.80
2019-06-10T22:18:39.503Z,70.80
2019-06-10T22:21:08.402Z,69.10
2019-06-10T22:23:37.201Z,67.80
2019-06-10T22:26:06.294Z,67.90
2019-06-10T22:28:35.366Z,68.30
2019-06-10T22:31:15.984Z,68.30
2019-06-10T22:33:34.887Z,69.00
2019-06-10T22:36:03.721Z,68.40
2019-06-10T22:38:32.961Z,68.60
2019-06-10T22:41:03.159Z,68.20
2019-06-10T22:43:32.604Z,68.10
2019-06-10T22:46:03.765Z,68.90
2019-06-10T22:48:33.248Z,68.40
2019-06-10T22:51:02.343Z,68.50
2019-06-10T22:53:33.376Z,69.30
2019-06-10T22:56:02.962Z,69.50
2019-06-10T22:58:32.165Z,68.90
2019-06-10T23:01:01.136Z,69.80
2019-06-10T23:03:30.841Z,69.40
2019-06-10T23:06:02.470Z,69.00
2019-06-10T23:08:30.401Z,69.70
2019-06-10T23:10:59.819Z,69.10
2019-06-10T23:13:28.772Z,68.90
2019-06-10T23:15:58.652Z,69.00
2019-06-10T23:18:28.330Z,69.00
2019-06-10T23:20:57.922Z,69.20
2019-06-10T23:23:27.868Z,69.00
2019-06-10T23:25:57.988Z,69.00
2019-06-10T23:28:27.021Z,69.30
2019-06-10T23:30:58.857Z,70.10
2019-06-10T23:33:26.454Z,70.20
2019-06-10T23:35:56.458Z,69.40
2019-06-10T23:38:25.459Z,70.50
2019-06-10T23:40:54.776Z,69.60
2019-06-10T23:43:23.923Z,69.50
2019-06-10T23:45:53.268Z,69.50
2019-06-10T23:48:22.836Z,70.30
2019-06-10T23:50:53.853Z,69.70
2019-06-10T23:53:23.199Z,69.60
2019-06-10T23:55:54.570Z,69.60
2019-06-10T23:58:25.138Z,69.60
